Time;durP1;ratioP1;P1;durP2;ratioP2;P2;SDS_P1;SDS_P2;PMS_P1;PMS_P2;Temp;Humidity;BMP_temperature;BMP_pressure;BME280_temperature;BME280_humidity;BME280_pressure;Samples;Min_cycle;Max_cycle;Signal;HPM_P1;HPM_P2
2022/09/24 00:01:54;;;;;;;1.57;1.47;;;22.20;64.90;;;;;;5113292;28;20526;-84
2022/09/24 00:04:26;;;;;;;1.60;1.50;;;22.20;64.90;;;;;;5113717;28;20453;-84
2022/09/24 00:06:53;;;;;;;1.47;1.37;;;22.20;65.00;;;;;;5117454;28;20977;-85
2022/09/24 00:09:22;;;;;;;1.60;1.50;;;22.20;64.90;;;;;;5117422;28;20439;-83
2022/09/24 00:11:52;;;;;;;1.70;1.60;;;22.20;64.90;;;;;;5117513;28;21001;-84
2022/09/24 00:14:20;;;;;;;1.67;1.57;;;22.20;64.90;;;;;;5117449;28;20446;-84
2022/09/24 00:16:46;;;;;;;1.77;1.67;;;22.20;65.00;;;;;;5117147;28;20435;-85
2022/09/24 00:19:14;;;;;;;1.50;1.40;;;22.20;64.90;;;;;;5116956;28;20471;-85
2022/09/24 00:21:41;;;;;;;2.10;1.90;;;22.20;65.00;;;;;;5116933;28;20489;-85
2022/09/24 00:24:10;;;;;;;1.83;1.73;;;22.20;64.90;;;;;;5117302;28;20443;-84
2022/09/24 00:26:48;;;;;;;1.60;1.50;;;22.20;64.90;;;;;;5117097;28;20447;-85
2022/09/24 00:29:19;;;;;;;1.60;1.50;;;22.20;65.00;;;;;;5117026;28;20445;-85
2022/09/24 00:31:46;;;;;;;1.63;1.53;;;22.20;65.00;;;;;;5117037;28;21043;-86
2022/09/24 00:34:13;;;;;;;1.80;1.70;;;22.20;65.00;;;;;;5117007;28;20439;-85
2022/09/24 00:36:40;;;;;;;1.40;1.30;;;22.20;65.00;;;;;;5116808;28;20515;-85
2022/09/24 00:39:07;;;;;;;1.80;1.70;;;22.20;65.00;;;;;;5116823;28;20441;-84
2022/09/24 00:41:36;;;;;;;2.07;1.50;;;22.20;65.00;;;;;;5116746;28;20952;-86
2022/09/24 00:44:56;;;;;;;1.70;1.60;;;22.20;65.00;;;;;;5116643;28;20435;-85
2022/09/24 00:47:33;;;;;;;1.77;1.67;;;22.20;64.90;;;;;;5116749;28;20534;-86
2022/09/24 00:50:13;;;;;;;1.57;1.47;;;22.20;65.10;;;;;;5116571;28;20430;-85
2022/09/24 00:52:44;;;;;;;1.50;1.40;;;22.20;65.10;;;;;;5116418;28;20473;-83
2022/09/24 00:55:12;;;;;;;2.17;1.97;;;22.10;65.00;;;;;;5116610;28;20443;-85
2022/09/24 00:57:40;;;;;;;1.40;1.30;;;22.10;65.00;;;;;;5116596;28;20436;-85
2022/09/24 01:00:10;;;;;;;2.17;1.97;;;22.10;65.80;;;;;;5116350;28;20503;-85
2022/09/24 01:02:39;;;;;;;1.40;1.30;;;22.20;65.10;;;;;;5116376;28;20842;-85
2022/09/24 01:05:09;;;;;;;1.40;1.30;;;22.10;65.00;;;;;;5116339;28;20798;-85
2022/09/24 01:07:35;;;;;;;2.00;1.90;;;22.10;65.00;;;;;;5116183;28;20839;-86
2022/09/24 01:10:03;;;;;;;1.80;1.70;;;22.10;65.00;;;;;;5116005;28;20470;-86
2022/09/24 01:12:40;;;;;;;1.63;1.53;;;22.20;65.20;;;;;;5116032;28;20439;-84
2022/09/24 01:15:18;;;;;;;1.50;1.40;;;22.20;65.20;;;;;;5116096;28;20443;-86
2022/09/24 01:17:53;;;;;;;1.93;1.83;;;22.10;65.00;;;;;;5114762;28;20442;-85
2022/09/24 01:20:53;;;;;;;1.90;1.80;;;22.20;65.20;;;;;;5115968;28;20514;-85
2022/09/24 01:23:40;;;;;;;1.90;1.80;;;22.20;65.20;;;;;;5113392;28;20538;-85
2022/09/24 01:26:18;;;;;;;1.87;1.67;;;22.20;65.20;;;;;;5115930;28;20441;-86
2022/09/24 01:29:05;;;;;;;1.53;1.43;;;22.20;65.20;;;;;;5115889;28;20925;-85
2022/09/24 01:31:36;;;;;;;1.70;1.60;;;22.20;65.20;;;;;;5115955;28;20443;-85
2022/09/24 01:34:05;;;;;;;1.90;1.80;;;22.10;65.70;;;;;;5115856;28;20876;-86
2022/09/24 01:36:35;;;;;;;1.70;1.60;;;22.10;65.20;;;;;;5115684;28;20457;-85
2022/09/24 01:39:05;;;;;;;1.70;1.60;;;22.10;65.20;;;;;;5115539;28;20454;-85
2022/09/24 01:41:33;;;;;;;1.67;1.57;;;22.10;65.20;;;;;;5115577;28;20483;-85
2022/09/24 01:44:03;;;;;;;1.93;1.83;;;22.20;65.40;;;;;;5115511;28;20937;-84
2022/09/24 01:46:31;;;;;;;1.57;1.47;;;22.20;65.30;;;;;;5115580;28;20507;-85
2022/09/24 01:48:59;;;;;;;1.87;1.77;;;22.10;65.30;;;;;;5115492;28;20439;-84
2022/09/24 01:51:33;;;;;;;1.60;1.50;;;22.10;65.30;;;;;;5115431;28;20976;-86
2022/09/24 01:54:03;;;;;;;1.63;1.53;;;22.20;65.40;;;;;;5115307;28;20439;-84
2022/09/24 01:59:23;;;;;;;1.67;1.57;;;22.20;65.50;;;;;;5115062;28;20431;-84
2022/09/24 02:01:56;;;;;;;1.70;1.60;;;22.20;65.40;;;;;;5115294;28;20494;-86
2022/09/24 02:04:27;;;;;;;1.87;1.77;;;22.10;65.40;;;;;;5115250;28;20513;-84
2022/09/24 02:07:00;;;;;;;1.83;1.73;;;22.10;65.40;;;;;;5115162;28;20451;-85
2022/09/24 02:09:32;;;;;;;1.50;1.40;;;22.20;65.50;;;;;;5115066;28;20471;-84
2022/09/24 02:12:05;;;;;;;2.00;1.90;;;22.20;65.50;;;;;;5115130;28;20431;-83
2022/09/24 02:14:37;;;;;;;2.00;1.90;;;22.20;65.60;;;;;;5115065;28;20507;-84
2022/09/24 02:17:04;;;;;;;1.77;1.67;;;22.20;65.60;;;;;;5114630;28;20435;-84
2022/09/24 02:19:36;;;;;;;1.80;1.70;;;22.10;65.50;;;;;;5114736;28;20815;-85
2022/09/24 02:22:06;;;;;;;1.47;1.37;;;22.20;65.60;;;;;;5114750;28;20494;-85
2022/09/24 02:24:40;;;;;;;1.63;1.53;;;22.20;65.60;;;;;;5114930;28;20797;-84
2022/09/24 02:27:07;;;;;;;1.70;1.60;;;22.20;65.60;;;;;;5114515;28;20804;-84
2022/09/24 02:29:34;;;;;;;1.50;1.40;;;22.10;65.60;;;;;;5114568;28;20814;-84
2022/09/24 02:32:03;;;;;;;1.67;1.57;;;22.10;65.50;;;;;;5114810;28;20470;-84
2022/09/24 02:34:38;;;;;;;2.00;1.90;;;22.10;65.50;;;;;;5114595;28;20443;-84
2022/09/24 02:37:07;;;;;;;1.70;1.60;;;22.20;65.60;;;;;;5114505;28;20936;-84
2022/09/24 02:39:35;;;;;;;1.70;1.60;;;22.10;65.60;;;;;;5114504;28;20447;-84
2022/09/24 02:42:04;;;;;;;1.87;1.77;;;22.20;65.70;;;;;;5114631;28;20549;-84
2022/09/24 02:44:31;;;;;;;2.10;2.00;;;22.20;65.70;;;;;;5114628;28;20447;-85
2022/09/24 02:46:58;;;;;;;1.87;1.77;;;22.20;65.70;;;;;;5114029;28;20862;-84
2022/09/24 02:49:25;;;;;;;1.73;1.63;;;22.20;65.70;;;;;;5114428;28;20435;-85
2022/09/24 02:51:53;;;;;;;2.13;2.03;;;22.10;65.60;;;;;;5114161;28;20474;-83
2022/09/24 02:54:20;;;;;;;1.53;1.43;;;22.10;66.60;;;;;;5114180;28;20439;-83
2022/09/24 02:56:47;;;;;;;1.80;1.70;;;22.30;65.80;;;;;;5114177;28;20443;-84
2022/09/24 02:59:14;;;;;;;1.60;1.50;;;22.20;65.80;;;;;;5114070;28;20922;-85
2022/09/24 03:01:41;;;;;;;2.23;1.50;;;22.20;65.80;;;;;;5113920;28;21004;-85
2022/09/24 03:04:08;;;;;;;2.00;1.90;;;22.20;65.80;;;;;;5113965;28;20981;-83
2022/09/24 03:06:35;;;;;;;1.80;1.70;;;22.20;65.80;;;;;;5113703;28;20440;-83
2022/09/24 03:09:04;;;;;;;1.80;1.70;;;22.10;65.70;;;;;;5114163;28;20444;-84
2022/09/24 03:11:31;;;;;;;1.80;1.70;;;22.20;65.80;;;;;;5113996;28;20454;-84
2022/09/24 03:13:59;;;;;;;1.73;1.50;;;22.20;65.80;;;;;;5114004;28;20439;-85
2022/09/24 03:16:26;;;;;;;1.60;1.50;;;22.10;65.70;;;;;;5113788;28;20439;-85
2022/09/24 03:18:53;;;;;;;1.87;1.77;;;22.20;65.80;;;;;;5113642;28;20565;-84
2022/09/24 03:21:21;;;;;;;1.60;1.50;;;22.20;65.90;;;;;;5113845;28;20454;-83
2022/09/24 03:23:48;;;;;;;1.63;1.53;;;22.20;65.90;;;;;;5113671;28;20463;-84
2022/09/24 03:26:17;;;;;;;1.70;1.60;;;22.10;65.70;;;;;;5113724;28;20435;-83
2022/09/24 03:28:44;;;;;;;1.67;1.57;;;22.20;66.00;;;;;;5113822;28;20439;-84
2022/09/24 03:31:11;;;;;;;1.57;1.47;;;22.10;65.80;;;;;;5113654;28;20435;-86
2022/09/24 03:33:40;;;;;;;1.77;1.67;;;22.10;65.80;;;;;;5113764;28;20525;-84
2022/09/24 03:36:09;;;;;;;1.80;1.70;;;22.10;65.80;;;;;;5113703;28;20450;-84
2022/09/24 03:38:37;;;;;;;1.90;1.80;;;22.20;65.90;;;;;;5113544;28;20437;-84
2022/09/24 03:41:05;;;;;;;1.63;1.53;;;22.10;65.80;;;;;;5113006;28;20914;-84
2022/09/24 03:43:34;;;;;;;1.80;1.70;;;22.10;65.80;;;;;;5113526;28;20483;-84
2022/09/24 03:46:01;;;;;;;1.57;1.47;;;22.20;66.00;;;;;;5113435;28;20905;-84
2022/09/24 03:48:29;;;;;;;1.40;1.30;;;22.10;65.90;;;;;;5113662;28;20799;-85
2022/09/24 03:50:56;;;;;;;1.87;1.77;;;22.10;65.90;;;;;;5113426;28;20474;-84
2022/09/24 03:53:23;;;;;;;1.53;1.43;;;22.10;65.90;;;;;;5113578;28;20439;-84
2022/09/24 03:55:54;;;;;;;1.70;1.60;;;22.10;65.90;;;;;;5113578;28;20442;-83
2022/09/24 03:58:21;;;;;;;1.60;1.50;;;22.20;66.00;;;;;;5113431;28;20442;-84
2022/09/24 04:00:51;;;;;;;1.70;1.60;;;22.30;66.10;;;;;;5113448;28;20439;-85
2022/09/24 04:03:18;;;;;;;1.67;1.57;;;22.20;66.00;;;;;;5113258;28;20485;-83
2022/09/24 04:05:45;;;;;;;1.80;1.70;;;22.10;65.90;;;;;;5113282;28;20853;-84
2022/09/24 04:08:11;;;;;;;1.60;1.50;;;22.10;65.90;;;;;;5113654;28;20435;-84
2022/09/24 04:10:38;;;;;;;2.10;2.00;;;22.10;65.90;;;;;;5119010;28;20435;-84
2022/09/24 04:13:05;;;;;;;1.43;1.33;;;22.10;65.90;;;;;;5119535;28;20503;-83
2022/09/24 04:15:32;;;;;;;1.43;1.33;;;22.10;65.90;;;;;;5122248;28;20438;-80
2022/09/24 04:18:00;;;;;;;1.53;1.43;;;22.10;65.90;;;;;;5115131;28;20443;-84
2022/09/24 04:20:29;;;;;;;1.67;1.57;;;22.30;66.10;;;;;;5113127;28;20479;-84
2022/09/24 04:22:57;;;;;;;1.60;1.50;;;22.20;66.10;;;;;;5113145;28;20486;-84
2022/09/24 04:25:26;;;;;;;1.47;1.30;;;22.20;66.10;;;;;;5113348;28;20438;-85
2022/09/24 04:27:54;;;;;;;1.57;1.47;;;22.10;66.00;;;;;;5112953;28;20431;-84
2022/09/24 04:30:21;;;;;;;1.90;1.80;;;22.10;65.90;;;;;;5113224;28;20784;-84
2022/09/24 04:32:50;;;;;;;1.80;1.70;;;22.10;65.90;;;;;;5113103;28;20439;-84
2022/09/24 04:35:18;;;;;;;2.20;2.00;;;22.10;66.00;;;;;;5113180;28;20438;-85
2022/09/24 04:37:45;;;;;;;1.70;1.60;;;22.10;66.00;;;;;;5112968;28;20435;-86
2022/09/24 04:40:12;;;;;;;1.67;1.57;;;22.10;66.00;;;;;;5113077;28;20447;-84
2022/09/24 04:42:40;;;;;;;1.80;1.70;;;22.10;65.90;;;;;;5112979;28;20483;-84
2022/09/24 04:45:08;;;;;;;1.60;1.50;;;22.10;66.00;;;;;;5113029;28;20451;-84
2022/09/24 04:47:35;;;;;;;1.70;1.60;;;22.10;66.00;;;;;;5112871;28;20436;-84
2022/09/24 04:50:03;;;;;;;1.60;1.50;;;22.10;66.00;;;;;;5112922;28;20922;-84
2022/09/24 04:52:32;;;;;;;1.50;1.40;;;22.10;66.00;;;;;;5116311;28;20462;-85
2022/09/24 04:54:59;;;;;;;1.80;1.70;;;22.10;66.00;;;;;;5116613;28;20518;-84
2022/09/24 04:57:27;;;;;;;1.70;1.60;;;22.20;66.10;;;;;;5116443;28;20438;-84
2022/09/24 04:59:53;;;;;;;1.43;1.33;;;22.10;66.00;;;;;;5116539;28;20438;-84
2022/09/24 05:02:24;;;;;;;1.30;1.20;;;22.10;66.10;;;;;;5117065;28;21019;-83
2022/09/24 05:04:51;;;;;;;1.43;1.33;;;22.10;66.00;;;;;;5116825;28;20439;-83
2022/09/24 05:07:17;;;;;;;1.80;1.70;;;22.10;66.00;;;;;;5116732;28;20433;-84
2022/09/24 05:09:45;;;;;;;1.83;1.73;;;22.10;66.00;;;;;;5116383;28;20465;-85
2022/09/24 05:12:13;;;;;;;1.40;1.30;;;22.10;66.00;;;;;;5116299;28;20450;-85
2022/09/24 05:14:39;;;;;;;1.60;1.50;;;22.10;66.10;;;;;;5116230;28;20439;-84
2022/09/24 05:17:06;;;;;;;1.40;1.30;;;22.10;66.00;;;;;;5116292;28;20443;-85
2022/09/24 05:19:33;;;;;;;1.90;1.80;;;22.20;66.10;;;;;;5115828;28;20471;-84
2022/09/24 05:22:00;;;;;;;1.50;1.40;;;22.10;66.10;;;;;;5115752;28;20463;-84
2022/09/24 05:24:26;;;;;;;1.20;1.10;;;22.10;66.00;;;;;;5115942;28;20468;-84
2022/09/24 05:27:09;;;;;;;1.67;1.57;;;22.10;66.00;;;;;;5115840;28;20443;-84
2022/09/24 05:29:37;;;;;;;1.70;1.60;;;22.30;66.30;;;;;;5115938;28;20442;-84
2022/09/24 05:32:06;;;;;;;1.80;1.70;;;22.10;66.10;;;;;;5116007;28;20443;-85
2022/09/24 05:34:33;;;;;;;2.20;2.10;;;22.10;66.10;;;;;;5115952;28;20442;-85
2022/09/24 05:37:00;;;;;;;1.67;1.57;;;22.10;66.10;;;;;;5115982;28;20439;-83
2022/09/24 05:39:27;;;;;;;1.90;1.80;;;22.10;66.10;;;;;;5116317;28;20932;-83
2022/09/24 05:41:56;;;;;;;1.80;1.70;;;22.10;66.20;;;;;;5115978;28;20447;-84
2022/09/24 05:44:23;;;;;;;1.50;1.40;;;22.10;66.20;;;;;;5116241;28;20483;-83
2022/09/24 05:46:50;;;;;;;1.60;1.50;;;22.30;66.40;;;;;;5116673;28;20952;-84
2022/09/24 05:49:17;;;;;;;1.80;1.70;;;22.20;66.20;;;;;;5115878;28;20446;-84
2022/09/24 05:51:44;;;;;;;1.60;1.50;;;22.10;66.20;;;;;;5115451;28;20475;-84
2022/09/24 05:54:11;;;;;;;1.50;1.40;;;22.10;66.20;;;;;;5115683;28;20450;-84
2022/09/24 05:56:38;;;;;;;1.60;1.50;;;22.10;66.10;;;;;;5115808;28;20439;-84
2022/09/24 05:59:06;;;;;;;1.80;1.70;;;22.10;66.10;;;;;;5115695;28;20448;-84
2022/09/24 06:01:33;;;;;;;1.77;1.67;;;22.10;66.10;;;;;;5115436;28;20435;-85
2022/09/24 06:04:00;;;;;;;1.60;1.50;;;22.10;66.20;;;;;;5114551;28;20483;-84
2022/09/24 06:06:28;;;;;;;1.70;1.60;;;22.10;66.20;;;;;;5114936;28;20442;-84
2022/09/24 06:08:56;;;;;;;1.57;1.47;;;22.10;66.20;;;;;;5115238;28;20444;-85
2022/09/24 06:11:23;;;;;;;1.50;1.40;;;22.10;66.20;;;;;;5115181;28;20442;-84
2022/09/24 06:13:50;;;;;;;1.77;1.67;;;22.10;66.20;;;;;;5114965;28;20442;-85
2022/09/24 06:16:18;;;;;;;1.67;1.57;;;22.10;66.20;;;;;;5114987;28;20435;-85
2022/09/24 06:18:45;;;;;;;1.37;1.27;;;22.10;66.20;;;;;;5114660;28;20466;-84
2022/09/24 06:21:14;;;;;;;1.50;1.40;;;22.10;66.20;;;;;;5114869;28;20463;-84
2022/09/24 06:23:44;;;;;;;1.90;1.80;;;22.10;66.20;;;;;;5114711;28;20483;-84
2022/09/24 06:26:12;;;;;;;1.60;1.50;;;22.10;66.30;;;;;;5114676;28;20891;-83
2022/09/24 06:28:39;;;;;;;1.70;1.60;;;22.10;66.30;;;;;;5114618;28;20976;-84
2022/09/24 06:31:07;;;;;;;1.73;1.63;;;22.10;66.30;;;;;;5114623;28;20435;-85
2022/09/24 06:33:36;;;;;;;1.67;1.57;;;22.10;66.30;;;;;;5114570;28;20435;-84
2022/09/24 06:36:04;;;;;;;1.80;1.70;;;22.10;66.30;;;;;;5114556;28;20439;-84
2022/09/24 06:38:31;;;;;;;1.70;1.60;;;22.10;67.20;;;;;;5114441;28;20803;-83
2022/09/24 06:41:00;;;;;;;1.40;1.30;;;22.10;66.30;;;;;;5114520;28;20478;-84
2022/09/24 06:43:27;;;;;;;1.77;1.67;;;22.10;66.30;;;;;;5114382;28;20486;-83
2022/09/24 06:45:55;;;;;;;1.97;1.77;;;22.10;66.30;;;;;;5114227;28;20455;-84
2022/09/24 06:48:22;;;;;;;1.90;1.80;;;22.10;66.40;;;;;;5114458;28;20786;-84
2022/09/24 06:50:50;;;;;;;1.77;1.67;;;22.10;66.40;;;;;;5114292;28;20442;-84
2022/09/24 06:53:18;;;;;;;1.70;1.60;;;22.10;66.40;;;;;;5114247;28;20443;-85
2022/09/24 06:55:45;;;;;;;1.43;1.33;;;22.10;66.40;;;;;;5114110;28;20443;-84
2022/09/24 06:58:14;;;;;;;1.77;1.67;;;22.10;66.40;;;;;;5114029;28;20447;-84
2022/09/24 07:00:41;;;;;;;1.40;1.30;;;22.10;66.40;;;;;;5114227;28;20435;-83
2022/09/24 07:03:13;;;;;;;1.63;1.53;;;22.10;66.40;;;;;;5114132;28;20478;-84
2022/09/24 07:05:40;;;;;;;1.63;1.53;;;22.10;66.40;;;;;;5113963;28;20431;-83
2022/09/24 07:08:08;;;;;;;1.60;1.50;;;22.10;66.40;;;;;;5113997;28;20456;-84
2022/09/24 07:10:36;;;;;;;1.50;1.40;;;22.10;66.40;;;;;;5113952;28;20443;-84
2022/09/24 07:13:03;;;;;;;2.00;1.90;;;22.10;66.40;;;;;;5113938;28;20512;-84
2022/09/24 07:15:30;;;;;;;1.70;1.60;;;22.10;66.40;;;;;;5112900;28;20439;-83
2022/09/24 07:17:57;;;;;;;1.50;1.40;;;22.10;66.50;;;;;;5113968;28;20470;-84
2022/09/24 07:20:26;;;;;;;1.50;1.40;;;22.10;66.50;;;;;;5113696;28;20471;-84
2022/09/24 07:22:54;;;;;;;1.70;1.60;;;22.10;66.40;;;;;;5113692;28;20479;-84
2022/09/24 07:25:22;;;;;;;2.10;2.00;;;22.10;66.40;;;;;;5113762;28;20435;-84
2022/09/24 07:27:49;;;;;;;2.10;2.00;;;22.10;66.40;;;;;;5113703;28;20476;-84
2022/09/24 07:30:16;;;;;;;2.13;2.03;;;22.10;66.40;;;;;;5095686;28;20447;-85
2022/09/24 07:32:43;;;;;;;1.73;1.63;;;22.10;66.50;;;;;;5113805;28;20435;-84
2022/09/24 07:35:10;;;;;;;1.60;1.50;;;22.10;66.40;;;;;;5113819;28;20842;-85
2022/09/24 07:37:37;;;;;;;1.93;1.83;;;22.10;66.40;;;;;;5113554;28;20447;-85
2022/09/24 07:40:04;;;;;;;1.80;1.70;;;22.10;66.40;;;;;;5113642;28;20449;-85
2022/09/24 07:42:32;;;;;;;1.50;1.40;;;22.10;66.40;;;;;;5113540;28;20450;-84
2022/09/24 07:44:59;;;;;;;1.53;1.43;;;22.10;66.40;;;;;;5113475;28;20493;-84
2022/09/24 07:47:26;;;;;;;1.70;1.60;;;22.10;66.40;;;;;;5113464;28;20504;-84
2022/09/24 07:49:53;;;;;;;2.30;2.20;;;22.10;66.40;;;;;;5113526;28;20445;-85
2022/09/24 07:52:20;;;;;;;2.00;1.90;;;22.10;66.40;;;;;;5113486;28;20469;-84
2022/09/24 07:54:46;;;;;;;1.67;1.57;;;22.10;66.40;;;;;;5113442;28;20447;-84
2022/09/24 07:57:13;;;;;;;1.97;1.87;;;22.10;66.40;;;;;;5113444;28;20443;-83
2022/09/24 07:59:43;;;;;;;1.90;1.80;;;22.10;66.40;;;;;;5113711;28;20435;-85
2022/09/24 08:02:15;;;;;;;1.70;1.60;;;22.10;66.40;;;;;;5113535;28;20488;-83
2022/09/24 08:04:42;;;;;;;2.13;2.03;;;22.20;66.60;;;;;;5113434;28;20512;-83
2022/09/24 08:07:10;;;;;;;1.70;1.60;;;22.10;66.50;;;;;;5113210;28;20459;-84
2022/09/24 08:09:37;;;;;;;1.70;1.60;;;22.10;66.40;;;;;;5113361;28;20805;-84
2022/09/24 08:12:04;;;;;;;1.70;1.60;;;22.10;66.40;;;;;;5113242;28;21007;-84
2022/09/24 08:14:31;;;;;;;1.60;1.50;;;22.10;66.40;;;;;;5113132;28;20442;-84
2022/09/24 08:17:01;;;;;;;2.00;1.90;;;22.10;66.40;;;;;;5113271;28;20957;-84
2022/09/24 08:19:29;;;;;;;1.60;1.50;;;22.10;66.40;;;;;;5112960;28;21062;-86
2022/09/24 08:21:57;;;;;;;2.20;2.10;;;22.10;66.40;;;;;;5113332;28;20455;-86
2022/09/24 08:24:24;;;;;;;2.00;1.90;;;22.10;66.40;;;;;;5113132;28;20483;-84
2022/09/24 08:26:51;;;;;;;1.77;1.67;;;22.10;66.30;;;;;;5115610;28;20435;-87
2022/09/24 08:29:18;;;;;;;1.87;1.77;;;22.10;66.30;;;;;;5117219;28;20810;-84
2022/09/24 08:31:45;;;;;;;1.67;1.57;;;22.10;66.40;;;;;;5117003;28;20435;-87
2022/09/24 08:34:13;;;;;;;1.60;1.50;;;22.10;66.40;;;;;;5117105;28;20445;-86
2022/09/24 08:36:40;;;;;;;1.90;1.80;;;22.10;66.30;;;;;;5116936;28;20450;-83
2022/09/24 08:39:07;;;;;;;1.90;1.80;;;22.10;66.30;;;;;;5116754;28;20439;-85
2022/09/24 08:41:55;;;;;;;2.07;1.90;;;22.10;66.40;;;;;;5116948;28;20465;-83
2022/09/24 08:47:24;;;;;;;1.70;1.60;;;22.10;66.40;;;;;;5116820;28;20908;-84
2022/09/24 08:50:01;;;;;;;1.93;1.83;;;22.10;66.40;;;;;;5116807;28;20798;-85
2022/09/24 08:52:49;;;;;;;1.80;1.70;;;22.10;66.40;;;;;;5116776;28;20485;-86
2022/09/24 08:55:21;;;;;;;2.23;2.13;;;22.10;66.30;;;;;;5116723;28;20443;-86
2022/09/24 08:57:57;;;;;;;2.17;2.07;;;22.10;66.20;;;;;;5116671;28;20799;-84
2022/09/24 09:00:24;;;;;;;1.97;1.87;;;22.10;66.20;;;;;;5116589;28;20435;-84
2022/09/24 09:03:00;;;;;;;2.00;1.90;;;22.10;66.30;;;;;;5116432;28;20457;-84
2022/09/24 09:05:45;;;;;;;1.90;1.80;;;22.10;66.30;;;;;;5116408;28;20489;-84
2022/09/24 09:08:18;;;;;;;2.00;1.90;;;22.10;66.20;;;;;;5116432;28;20438;-84
2022/09/24 09:10:45;;;;;;;2.10;2.00;;;22.10;66.20;;;;;;5116482;28;20431;-86
2022/09/24 09:13:19;;;;;;;1.70;1.60;;;22.10;66.20;;;;;;5116582;28;20440;-84
2022/09/24 09:15:50;;;;;;;1.67;1.57;;;22.10;66.10;;;;;;5116429;28;20447;-85
2022/09/24 09:18:21;;;;;;;1.87;1.77;;;22.10;66.10;;;;;;5116159;28;20454;-82
2022/09/24 09:20:49;;;;;;;1.90;1.80;;;22.10;66.10;;;;;;5116351;28;20443;-84
2022/09/24 09:23:19;;;;;;;2.03;1.93;;;22.10;66.10;;;;;;5116094;28;20446;-85
2022/09/24 09:25:52;;;;;;;2.10;2.00;;;22.20;66.20;;;;;;5116037;28;20439;-85
2022/09/24 09:28:19;;;;;;;2.40;2.20;;;22.20;66.20;;;;;;5116096;28;20960;-85
2022/09/24 09:30:57;;;;;;;1.80;1.70;;;22.10;66.10;;;;;;5115909;28;20944;-84
2022/09/24 09:33:45;;;;;;;2.60;1.80;;;22.20;66.20;;;;;;5115997;28;20884;-89
2022/09/24 09:36:33;;;;;;;2.10;2.00;;;22.30;66.60;;;;;;5115873;28;20496;-83
2022/09/24 09:39:08;;;;;;;1.90;1.80;;;22.20;66.10;;;;;;5115144;28;20428;-83
2022/09/24 09:41:42;;;;;;;2.50;2.30;;;22.20;66.20;;;;;;5116003;28;20445;-84
2022/09/24 09:44:15;;;;;;;2.30;2.10;;;22.20;66.20;;;;;;5115551;28;20490;-83
2022/09/24 09:46:49;;;;;;;2.00;1.90;;;22.20;66.20;;;;;;5115454;28;20447;-85
2022/09/24 09:49:17;;;;;;;1.90;1.80;;;22.20;66.20;;;;;;5115693;28;20453;-83
2022/09/24 09:51:47;;;;;;;2.20;2.00;;;22.20;66.20;;;;;;5115669;28;20962;-83
2022/09/24 09:54:14;;;;;;;2.17;2.07;;;22.20;66.20;;;;;;5115430;28;20435;-85
2022/09/24 09:56:44;;;;;;;1.80;1.70;;;22.20;66.20;;;;;;5115471;28;20437;-83
2022/09/24 09:59:19;;;;;;;2.10;2.00;;;22.20;66.20;;;;;;5115332;28;20447;-85
2022/09/24 10:01:49;;;;;;;1.87;1.77;;;22.20;66.10;;;;;;5115345;28;20439;-84
2022/09/24 10:04:28;;;;;;;2.00;1.90;;;22.20;66.20;;;;;;5115209;28;20479;-83
2022/09/24 10:07:05;;;;;;;2.23;2.13;;;22.20;66.20;;;;;;5114997;28;20443;-84
2022/09/24 10:09:32;;;;;;;2.00;1.90;;;22.20;66.20;;;;;;5115250;28;20438;-85
2022/09/24 10:12:08;;;;;;;2.70;2.50;;;22.20;66.20;;;;;;5114996;28;20436;-84
2022/09/24 10:14:35;;;;;;;2.90;2.70;;;22.20;66.20;;;;;;5115157;28;20484;-84
2022/09/24 10:17:04;;;;;;;3.37;2.37;;;22.20;66.20;;;;;;5115099;28;20939;-84
2022/09/24 10:19:35;;;;;;;3.50;2.70;;;22.20;67.10;;;;;;5114632;28;20470;-84
2022/09/24 10:22:11;;;;;;;2.00;1.90;;;22.20;66.30;;;;;;5114837;28;20825;-83
2022/09/24 10:24:43;;;;;;;2.40;2.30;;;22.20;66.20;;;;;;5114680;28;20478;-83
2022/09/24 10:27:14;;;;;;;2.00;1.90;;;22.20;66.30;;;;;;5114837;28;20812;-83
2022/09/24 10:32:28;;;;;;;2.10;2.00;;;22.20;66.20;;;;;;5114924;28;20476;-84
2022/09/24 10:34:56;;;;;;;2.50;2.33;;;22.20;66.30;;;;;;5114764;28;20428;-84
2022/09/24 10:37:25;;;;;;;2.50;2.37;;;22.20;66.50;;;;;;5114280;28;20438;-84
2022/09/24 10:39:59;;;;;;;2.90;2.13;;;22.20;66.20;;;;;;5114337;28;20449;-84
2022/09/24 10:42:27;;;;;;;2.47;2.27;;;22.20;66.20;;;;;;5114472;28;20792;-83
2022/09/24 10:44:55;;;;;;;2.37;2.23;;;22.20;66.20;;;;;;5114279;28;20505;-84
2022/09/24 10:47:27;;;;;;;2.20;2.10;;;22.20;66.20;;;;;;5114255;28;20462;-83
2022/09/24 10:50:12;;;;;;;2.53;2.37;;;22.20;66.20;;;;;;5114299;28;20801;-84
2022/09/24 10:52:53;;;;;;;2.37;2.20;;;22.20;66.20;;;;;;5114158;28;20455;-84
2022/09/24 10:55:30;;;;;;;3.07;2.80;;;22.20;66.20;;;;;;5114301;28;20446;-84
2022/09/24 10:58:02;;;;;;;2.23;2.03;;;22.20;66.20;;;;;;5114202;28;20444;-84
2022/09/24 11:00:38;;;;;;;2.30;2.20;;;22.20;66.20;;;;;;5114467;28;20447;-83
2022/09/24 11:03:28;;;;;;;2.53;2.37;;;22.20;66.20;;;;;;5114301;28;20450;-84
2022/09/24 11:06:01;;;;;;;2.17;2.07;;;22.20;66.20;;;;;;5113697;28;20486;-84
2022/09/24 11:08:54;;;;;;;2.00;1.90;;;22.20;66.20;;;;;;5113978;28;20450;-84
2022/09/24 11:11:32;;;;;;;2.63;2.50;;;22.20;66.20;;;;;;5114111;28;20442;-84
2022/09/24 11:14:15;;;;;;;2.10;1.90;;;22.20;66.30;;;;;;5113991;28;20926;-85
2022/09/24 11:17:21;;;;;;;2.13;2.03;;;22.20;66.20;;;;;;5113804;28;20447;-84
2022/09/24 11:20:01;;;;;;;2.60;2.40;;;22.20;66.20;;;;;;5105456;28;20486;-84
2022/09/24 11:22:39;;;;;;;1.83;1.73;;;22.20;66.30;;;;;;5113638;28;20469;-84
2022/09/24 11:25:27;;;;;;;2.73;2.60;;;22.20;66.30;;;;;;5113943;28;20483;-84
2022/09/24 11:28:09;;;;;;;2.50;2.40;;;22.20;66.30;;;;;;5113874;28;20442;-84
2022/09/24 11:30:46;;;;;;;2.30;2.10;;;22.20;66.30;;;;;;5113806;28;20442;-84
2022/09/24 11:33:26;;;;;;;2.30;2.10;;;22.20;66.40;;;;;;5113698;28;20495;-84
2022/09/24 11:36:20;;;;;;;2.73;2.40;;;22.20;66.30;;;;;;5113744;28;20446;-84
2022/09/24 11:39:07;;;;;;;2.20;2.10;;;22.20;66.30;;;;;;5109813;28;20482;-84
2022/09/24 11:41:44;;;;;;;2.70;2.50;;;22.20;66.30;;;;;;5113489;28;20443;-85
2022/09/24 11:44:51;;;;;;;2.73;2.53;;;22.20;66.40;;;;;;5113588;28;20917;-84
2022/09/24 11:47:30;;;;;;;2.20;2.10;;;22.20;66.40;;;;;;5113506;28;20438;-84
2022/09/24 11:50:14;;;;;;;2.37;2.27;;;22.20;66.40;;;;;;5113658;28;20446;-85
2022/09/24 11:52:45;;;;;;;2.37;2.27;;;22.20;66.40;;;;;;5113800;28;20463;-85
2022/09/24 11:55:17;;;;;;;2.60;2.50;;;22.20;66.50;;;;;;5113519;28;20957;-84
2022/09/24 11:57:50;;;;;;;2.90;2.70;;;22.20;66.50;;;;;;5113470;28;20450;-84
2022/09/24 12:00:19;;;;;;;1.77;1.67;;;22.20;66.40;;;;;;5113703;28;20445;-84
2022/09/24 12:02:50;;;;;;;2.20;2.10;;;22.10;66.40;;;;;;5117511;28;20562;-84
2022/09/24 12:05:25;;;;;;;2.50;2.30;;;22.20;66.50;;;;;;5117592;28;20482;-84
2022/09/24 12:07:57;;;;;;;2.27;2.13;;;22.20;66.50;;;;;;5117437;28;20438;-84
2022/09/24 12:10:34;;;;;;;2.57;2.37;;;22.20;66.50;;;;;;5117463;28;20485;-83
2022/09/24 12:13:12;;;;;;;2.67;2.47;;;22.20;66.50;;;;;;5117503;28;20454;-83
2022/09/24 12:15:47;;;;;;;2.10;2.00;;;22.20;66.50;;;;;;5117361;28;20445;-84
2022/09/24 12:18:20;;;;;;;2.33;2.23;;;22.20;66.50;;;;;;5117306;28;20448;-84
2022/09/24 12:20:51;;;;;;;2.70;2.50;;;22.20;66.50;;;;;;5117182;28;21025;-84
2022/09/24 12:23:22;;;;;;;2.10;2.00;;;22.20;66.50;;;;;;5117367;28;20446;-84
2022/09/24 12:25:52;;;;;;;2.20;2.10;;;22.20;66.50;;;;;;5117059;28;20486;-84
2022/09/24 12:34:05;;;;;;;2.03;1.93;;;22.20;66.50;;;;;;5117257;28;20778;-85
2022/09/24 12:36:52;;;;;;;2.47;2.37;;;22.20;66.60;;;;;;5116846;28;20457;-84
2022/09/24 12:39:22;;;;;;;4.03;2.80;;;22.20;66.50;;;;;;5116927;28;20938;-83
2022/09/24 12:41:56;;;;;;;2.53;2.43;;;22.20;66.60;;;;;;5116772;28;20465;-84
2022/09/24 12:44:33;;;;;;;2.60;2.40;;;22.20;66.60;;;;;;5116891;28;20442;-84
2022/09/24 12:47:00;;;;;;;2.80;2.60;;;22.20;66.60;;;;;;5116743;28;20438;-84
2022/09/24 12:49:34;;;;;;;2.53;2.33;;;22.20;66.60;;;;;;5116840;28;20956;-84
2022/09/24 12:52:03;;;;;;;2.40;2.30;;;22.20;66.60;;;;;;5116804;28;20973;-84
2022/09/24 12:54:33;;;;;;;2.10;2.00;;;22.20;66.60;;;;;;5116743;28;20454;-83
2022/09/24 12:57:13;;;;;;;2.40;2.30;;;22.20;66.60;;;;;;5116546;28;20797;-84
2022/09/24 12:59:50;;;;;;;2.80;2.60;;;22.20;66.60;;;;;;5113867;28;20476;-84
2022/09/24 13:02:20;;;;;;;2.50;2.30;;;22.20;66.50;;;;;;5116438;28;20440;-84
2022/09/24 13:05:03;;;;;;;2.77;2.57;;;22.20;66.60;;;;;;5116623;28;20481;-84
2022/09/24 13:07:33;;;;;;;2.90;2.80;;;22.20;66.60;;;;;;5116285;28;20442;-84
2022/09/24 13:10:22;;;;;;;2.30;2.20;;;22.20;66.60;;;;;;5116504;28;20438;-85
2022/09/24 13:12:50;;;;;;;2.40;2.30;;;22.20;66.50;;;;;;5116237;28;20529;-85
2022/09/24 13:15:29;;;;;;;2.43;2.33;;;22.20;66.60;;;;;;5116167;28;20564;-85
2022/09/24 13:18:05;;;;;;;95.63;11.60;;;22.20;66.50;;;;;;5116188;28;20495;-84
2022/09/24 13:20:34;;;;;;;2.70;2.50;;;22.20;66.60;;;;;;5115695;28;20489;-84
2022/09/24 13:23:13;;;;;;;2.63;2.43;;;22.20;66.60;;;;;;5116101;28;20443;-84